Time;durP1;ratioP1;P1;durP2;ratioP2;P2;SDS_P1;SDS_P2;PMS_P1;PMS_P2;Temp;Humidity;BMP_temperature;BMP_pressure;BME280_temperature;BME280_humidity;BME280_pressure;Samples;Min_cycle;Max_cycle;Signal;HPM_P1;HPM_P2
2023/08/09 00:02:02;;;;;;;1999.90;999.90;;;15.50;99.90;;;;;;5074497;28;20033;-75
2023/08/09 00:04:27;;;;;;;1999.90;999.90;;;15.40;99.90;;;;;;5077117;28;20039;-75
2023/08/09 00:06:53;;;;;;;1999.90;999.90;;;15.30;99.90;;;;;;5077595;28;20425;-74
2023/08/09 00:09:20;;;;;;;1999.90;999.90;;;15.30;99.90;;;;;;5077551;28;20099;-76
2023/08/09 00:11:47;;;;;;;1999.90;999.90;;;15.20;99.90;;;;;;5076072;28;20513;-75
2023/08/09 00:14:12;;;;;;;1999.90;999.90;;;15.10;99.90;;;;;;5075784;28;20112;-76
2023/08/09 00:16:38;;;;;;;1999.90;999.90;;;15.10;99.90;;;;;;5076002;28;20442;-75
2023/08/09 00:19:04;;;;;;;1999.90;999.90;;;15.10;99.90;;;;;;5077494;28;20048;-76
2023/08/09 00:21:31;;;;;;;1999.90;999.90;;;15.00;99.90;;;;;;5077208;28;20036;-76
2023/08/09 00:23:57;;;;;;;1999.90;999.90;;;15.00;99.90;;;;;;5077010;28;20037;-76
2023/08/09 00:26:23;;;;;;;1999.90;999.90;;;14.90;99.90;;;;;;5076011;28;20040;-75
2023/08/09 00:28:48;;;;;;;1999.90;999.90;;;14.90;99.90;;;;;;5075501;28;20452;-76
2023/08/09 00:31:14;;;;;;;1999.90;999.90;;;14.90;99.90;;;;;;5077362;28;20442;-76
2023/08/09 00:33:39;;;;;;;1999.90;999.90;;;14.90;99.90;;;;;;5077281;28;20037;-75
2023/08/09 00:36:05;;;;;;;1999.90;999.90;;;14.80;99.90;;;;;;5075422;28;20114;-74
2023/08/09 00:38:30;;;;;;;1999.90;999.90;;;14.80;99.90;;;;;;5077099;28;20470;-76
2023/08/09 00:40:56;;;;;;;1999.90;999.90;;;14.80;99.90;;;;;;5076893;28;20454;-76
2023/08/09 00:43:21;;;;;;;1999.90;999.90;;;14.90;99.90;;;;;;5077196;28;20398;-75
2023/08/09 00:45:48;;;;;;;1999.90;999.90;;;14.80;99.90;;;;;;5076864;28;20096;-76
2023/08/09 00:48:14;;;;;;;1999.90;999.90;;;14.90;99.90;;;;;;5077078;28;20037;-76
2023/08/09 00:50:40;;;;;;;1999.90;999.90;;;14.90;99.90;;;;;;5075204;28;20444;-76
2023/08/09 00:53:07;;;;;;;1999.90;999.90;;;14.90;99.90;;;;;;5077041;28;20379;-75
2023/08/09 00:55:33;;;;;;;1999.90;999.90;;;14.90;99.90;;;;;;5076744;28;20040;-76
2023/08/09 00:57:58;;;;;;;1999.90;999.90;;;15.00;99.90;;;;;;5075306;28;20090;-76
2023/08/09 01:00:24;;;;;;;1999.90;999.90;;;15.00;99.90;;;;;;5075158;28;20033;-76
2023/08/09 01:02:50;;;;;;;1999.90;999.90;;;15.00;99.90;;;;;;5075259;28;20036;-76
2023/08/09 01:05:16;;;;;;;1999.90;999.90;;;15.00;99.90;;;;;;5076130;28;20033;-76
2023/08/09 01:08:00;;;;;;;1999.90;999.90;;;15.00;99.90;;;;;;5076402;28;20052;-74
2023/08/09 01:10:33;;;;;;;1999.90;999.90;;;15.00;99.90;;;;;;5074904;28;20534;-76
2023/08/09 01:13:05;;;;;;;1999.90;999.90;;;15.00;99.90;;;;;;5076654;28;20119;-75
2023/08/09 01:15:33;;;;;;;1999.90;999.90;;;15.00;99.90;;;;;;5075493;28;20395;-75
2023/08/09 01:18:00;;;;;;;1999.90;999.90;;;15.00;99.90;;;;;;5074949;28;20041;-75
2023/08/09 01:20:27;;;;;;;1999.90;999.90;;;14.90;99.90;;;;;;5074565;28;20761;-75
2023/08/09 01:22:59;;;;;;;1999.90;999.90;;;14.80;99.90;;;;;;5076514;28;20476;-75
2023/08/09 01:25:25;;;;;;;1999.90;999.90;;;14.80;99.90;;;;;;5076182;28;20040;-75
2023/08/09 01:27:52;;;;;;;1999.90;999.90;;;14.80;99.90;;;;;;5076211;28;20048;-75
2023/08/09 01:30:17;;;;;;;1999.90;999.90;;;14.70;99.90;;;;;;5075500;28;20037;-75
2023/08/09 01:32:43;;;;;;;1999.90;999.90;;;14.70;99.90;;;;;;5075036;28;20510;-74
2023/08/09 01:35:09;;;;;;;1999.90;999.90;;;14.70;99.90;;;;;;5076046;28;20041;-76
2023/08/09 01:37:52;;;;;;;1999.90;999.90;;;14.70;99.90;;;;;;5076365;28;20048;-76
2023/08/09 01:40:18;;;;;;;1999.90;999.90;;;14.70;99.90;;;;;;5075846;28;20083;-75
2023/08/09 01:42:45;;;;;;;1999.90;999.90;;;14.70;99.90;;;;;;5076235;28;20453;-76
2023/08/09 01:45:12;;;;;;;1999.90;999.90;;;14.70;99.90;;;;;;5074087;28;20037;-75
2023/08/09 01:47:39;;;;;;;1999.90;999.90;;;14.60;99.90;;;;;;5075897;28;20110;-75
2023/08/09 01:50:06;;;;;;;1999.90;999.90;;;14.60;99.90;;;;;;5074388;28;20029;-75
2023/08/09 01:52:32;;;;;;;1999.90;999.90;;;14.60;99.90;;;;;;5076042;28;20134;-75
2023/08/09 01:54:58;;;;;;;1999.90;999.90;;;14.50;99.90;;;;;;5075857;28;20469;-76
2023/08/09 01:57:24;;;;;;;1999.90;999.90;;;14.50;99.90;;;;;;5075878;28;20099;-75
2023/08/09 01:59:50;;;;;;;1999.90;999.90;;;14.50;99.90;;;;;;5074132;28;20033;-75
2023/08/09 02:02:16;;;;;;;1999.90;999.90;;;14.50;99.90;;;;;;5075768;28;20043;-75
2023/08/09 02:04:42;;;;;;;1999.90;999.90;;;14.50;99.90;;;;;;5075460;28;20036;-76
2023/08/09 02:07:07;;;;;;;1999.90;999.90;;;14.50;99.90;;;;;;5075747;28;20517;-75
2023/08/09 02:09:34;;;;;;;1999.90;999.90;;;14.40;99.90;;;;;;5075494;28;20544;-75
2023/08/09 02:11:59;;;;;;;1999.90;999.90;;;14.40;99.90;;;;;;5075842;28;20037;-74
2023/08/09 02:14:25;;;;;;;1999.90;999.90;;;14.50;99.90;;;;;;5073864;28;20502;-75
2023/08/09 02:16:51;;;;;;;1999.90;999.90;;;14.50;99.90;;;;;;5075647;28;20091;-75
2023/08/09 02:19:16;;;;;;;1999.90;999.90;;;14.40;99.90;;;;;;5073770;28;20033;-75
2023/08/09 02:21:42;;;;;;;1999.90;999.90;;;14.50;99.90;;;;;;5075760;28;20056;-75
2023/08/09 02:24:08;;;;;;;1999.90;999.90;;;14.40;99.90;;;;;;5075351;28;20033;-75
2023/08/09 02:26:34;;;;;;;1999.90;999.90;;;14.40;99.90;;;;;;5075302;28;20033;-75
2023/08/09 02:29:03;;;;;;;1999.90;999.90;;;14.50;99.90;;;;;;5093503;22;20040;-73
2023/08/09 02:31:31;;;;;;;1999.90;999.90;;;14.50;99.90;;;;;;4992316;28;20042;-74
2023/08/09 02:33:57;;;;;;;1999.90;999.90;;;14.50;99.90;;;;;;4992522;28;20108;-74
2023/08/09 02:36:23;;;;;;;1999.90;999.90;;;14.50;99.90;;;;;;4992895;28;20479;-74
2023/08/09 02:38:49;;;;;;;1999.90;999.90;;;14.50;99.90;;;;;;4992916;28;20554;-74
2023/08/09 02:41:14;;;;;;;1999.90;999.90;;;14.50;99.90;;;;;;5094339;28;20028;-74
2023/08/09 02:43:40;;;;;;;1999.90;999.90;;;14.50;99.90;;;;;;5093615;28;20035;-74
2023/08/09 02:46:06;;;;;;;1999.90;999.90;;;14.50;99.90;;;;;;5095105;28;20401;-74
2023/08/09 02:48:31;;;;;;;1999.90;999.90;;;14.50;99.90;;;;;;5095194;28;20032;-74
2023/08/09 02:50:57;;;;;;;1999.90;999.90;;;14.50;99.90;;;;;;5095180;28;20028;-74
2023/08/09 02:53:31;;;;;;;1999.90;999.90;;;14.50;99.90;;;;;;5095260;28;20486;-74
2023/08/09 02:55:57;;;;;;;1999.90;999.90;;;14.40;99.90;;;;;;5093296;28;20041;-74
2023/08/09 02:58:22;;;;;;;1999.90;999.90;;;14.40;99.90;;;;;;5095187;28;20032;-74
2023/08/09 03:00:48;;;;;;;1999.90;999.90;;;14.40;99.90;;;;;;5093634;28;20032;-74
2023/08/09 03:03:13;;;;;;;1999.90;999.90;;;14.40;99.90;;;;;;5095162;28;20033;-74
2023/08/09 03:05:39;;;;;;;1999.90;999.90;;;14.40;99.90;;;;;;5094920;28;20047;-74
2023/08/09 03:08:04;;;;;;;1999.90;999.90;;;14.40;99.90;;;;;;5094944;28;20064;-74
2023/08/09 03:10:30;;;;;;;1999.90;999.90;;;14.50;99.90;;;;;;5094621;28;20036;-74
2023/08/09 03:12:56;;;;;;;1999.90;999.90;;;14.50;99.90;;;;;;5094942;28;20486;-74
2023/08/09 03:15:22;;;;;;;1999.90;999.90;;;14.50;99.90;;;;;;5094532;28;20033;-74
2023/08/09 03:17:48;;;;;;;1999.90;999.90;;;14.50;99.90;;;;;;5094808;28;20508;-72
2023/08/09 03:20:14;;;;;;;1999.90;999.90;;;14.60;99.90;;;;;;5094812;28;20056;-73
2023/08/09 03:22:42;;;;;;;1999.90;999.90;;;14.60;99.90;;;;;;5095092;28;20036;-72
2023/08/09 03:25:08;;;;;;;1999.90;999.90;;;14.60;99.90;;;;;;5094608;28;20033;-72
2023/08/09 03:27:34;;;;;;;1999.90;999.90;;;14.50;99.90;;;;;;5094849;28;20037;-72
2023/08/09 03:30:00;;;;;;;1999.90;999.90;;;14.50;99.90;;;;;;5092666;28;20040;-72
2023/08/09 03:32:25;;;;;;;1999.90;999.90;;;14.60;99.90;;;;;;5094861;28;20044;-72
2023/08/09 03:34:51;;;;;;;1999.90;999.90;;;14.50;99.90;;;;;;5092819;28;20520;-72
2023/08/09 03:37:16;;;;;;;1999.90;999.90;;;14.50;99.90;;;;;;5095299;28;20470;-72
2023/08/09 03:39:42;;;;;;;1999.90;999.90;;;14.50;99.90;;;;;;5098459;28;20037;-73
2023/08/09 03:42:07;;;;;;;1999.90;999.90;;;14.50;99.90;;;;;;5098000;28;20059;-73
2023/08/09 03:44:33;;;;;;;1999.90;999.90;;;14.50;99.90;;;;;;5097602;28;20041;-72
2023/08/09 03:46:59;;;;;;;1999.90;999.90;;;14.40;99.90;;;;;;5097950;28;20025;-72
2023/08/09 03:49:24;;;;;;;1999.90;999.90;;;14.50;99.90;;;;;;5097945;28;20040;-72
2023/08/09 03:51:50;;;;;;;1999.90;999.90;;;14.40;99.90;;;;;;5098053;28;20032;-72
2023/08/09 03:54:15;;;;;;;1999.90;999.90;;;14.40;99.90;;;;;;5097962;28;20090;-72
2023/08/09 03:56:41;;;;;;;1999.90;999.90;;;14.40;99.90;;;;;;5096624;28;20029;-72
2023/08/09 03:59:07;;;;;;;1999.90;999.90;;;14.40;99.90;;;;;;5098024;28;20032;-72
2023/08/09 04:01:33;;;;;;;1999.90;999.90;;;14.40;99.90;;;;;;5098101;28;20480;-72
2023/08/09 04:03:58;;;;;;;1999.90;999.90;;;14.30;99.90;;;;;;5097773;28;20043;-72
2023/08/09 04:06:24;;;;;;;1999.90;999.90;;;14.30;99.90;;;;;;5096491;28;20489;-72
2023/08/09 04:08:49;;;;;;;1999.90;999.90;;;14.30;99.90;;;;;;5097858;28;20037;-72
2023/08/09 04:11:15;;;;;;;1999.90;999.90;;;14.30;99.90;;;;;;5097629;28;20037;-72
2023/08/09 04:13:41;;;;;;;1999.90;999.90;;;14.30;99.90;;;;;;5096250;28;20036;-72
2023/08/09 04:16:06;;;;;;;1999.90;999.90;;;14.30;99.90;;;;;;5097492;28;20036;-72
2023/08/09 04:18:33;;;;;;;1999.90;999.90;;;14.30;99.90;;;;;;5097729;28;20418;-72
2023/08/09 04:20:58;;;;;;;1999.90;999.90;;;14.20;99.90;;;;;;5097263;28;20105;-72
2023/08/09 04:23:24;;;;;;;1999.90;999.90;;;14.30;99.90;;;;;;5097532;28;20570;-72
2023/08/09 04:25:50;;;;;;;1999.90;999.90;;;14.30;99.90;;;;;;5097510;28;20029;-72
2023/08/09 04:28:15;;;;;;;1999.90;999.90;;;14.30;99.90;;;;;;5097656;28;20117;-72
2023/08/09 04:30:41;;;;;;;1999.90;999.90;;;14.40;99.90;;;;;;5095462;28;20036;-72
2023/08/09 04:33:07;;;;;;;1999.90;999.90;;;14.40;99.90;;;;;;5097447;28;20512;-72
2023/08/09 04:35:33;;;;;;;1999.90;999.90;;;14.40;99.90;;;;;;5097180;28;20047;-72
2023/08/09 04:38:00;;;;;;;1999.90;999.90;;;14.50;99.90;;;;;;5097528;28;20032;-72
2023/08/09 04:40:25;;;;;;;1999.90;999.90;;;14.50;99.90;;;;;;5085579;28;20039;-72
2023/08/09 04:42:51;;;;;;;1999.90;999.90;;;14.50;99.90;;;;;;5076947;28;20543;-72
2023/08/09 04:45:17;;;;;;;1999.90;999.90;;;14.50;99.90;;;;;;5075281;28;20112;-72
2023/08/09 04:47:43;;;;;;;1999.90;999.90;;;14.60;99.90;;;;;;5076996;28;20041;-72
2023/08/09 04:50:09;;;;;;;1999.90;999.90;;;14.60;99.90;;;;;;5076754;28;21221;-72
2023/08/09 04:52:36;;;;;;;1999.90;999.90;;;14.60;99.90;;;;;;5076883;28;20473;-72
2023/08/09 04:55:03;;;;;;;1999.90;999.90;;;14.60;99.90;;;;;;5076417;28;20033;-72
2023/08/09 04:57:31;;;;;;;1999.90;999.90;;;14.70;99.90;;;;;;5076983;28;20025;-72
2023/08/09 04:59:56;;;;;;;1999.90;999.90;;;14.70;99.90;;;;;;5076636;28;20082;-72
2023/08/09 05:02:22;;;;;;;1999.90;999.90;;;14.80;99.90;;;;;;5074878;28;20486;-72
2023/08/09 05:04:47;;;;;;;1999.90;999.90;;;14.90;99.90;;;;;;5076216;28;20052;-72
2023/08/09 05:07:13;;;;;;;1999.90;999.90;;;15.00;99.90;;;;;;5076759;28;20052;-72
2023/08/09 05:09:39;;;;;;;1999.90;999.90;;;15.10;99.90;;;;;;5076541;28;20095;-72
2023/08/09 05:12:04;;;;;;;1999.90;999.90;;;15.20;99.90;;;;;;5076653;28;20483;-72
2023/08/09 05:14:30;;;;;;;1999.90;999.90;;;15.20;99.90;;;;;;5076480;28;20108;-72
2023/08/09 05:16:56;;;;;;;1999.90;999.90;;;15.30;99.90;;;;;;5076464;28;20037;-72
2023/08/09 05:19:21;;;;;;;1999.90;999.90;;;15.30;99.90;;;;;;5076412;28;20052;-72
2023/08/09 05:21:48;;;;;;;1999.90;999.90;;;15.40;99.90;;;;;;5076631;28;20025;-72
2023/08/09 05:24:14;;;;;;;1999.90;999.90;;;15.60;99.90;;;;;;5076165;28;20037;-72
2023/08/09 05:26:40;;;;;;;1999.90;999.90;;;15.60;99.90;;;;;;5076667;28;20474;-72
2023/08/09 05:29:06;;;;;;;1999.90;999.90;;;15.70;99.90;;;;;;5075983;28;20040;-72
2023/08/09 05:31:32;;;;;;;1999.90;999.90;;;15.70;99.90;;;;;;5075713;28;20037;-72
2023/08/09 05:33:57;;;;;;;1999.90;999.90;;;15.70;99.90;;;;;;5076234;28;20029;-72
2023/08/09 05:36:23;;;;;;;1999.90;999.90;;;15.80;99.90;;;;;;5076510;28;20029;-72
2023/08/09 05:38:49;;;;;;;1999.90;999.90;;;15.90;99.90;;;;;;5076500;28;20041;-72
2023/08/09 05:41:15;;;;;;;1999.90;999.90;;;16.00;99.90;;;;;;5075897;28;20033;-72
2023/08/09 05:43:40;;;;;;;1999.90;999.90;;;16.00;99.90;;;;;;5075848;28;20033;-72
2023/08/09 05:46:06;;;;;;;1999.90;999.90;;;16.00;99.90;;;;;;5075783;28;20029;-72
2023/08/09 05:48:32;;;;;;;1999.90;999.90;;;16.00;99.90;;;;;;5075655;28;20044;-72
2023/08/09 05:50:57;;;;;;;1999.90;999.90;;;16.10;99.90;;;;;;5075885;28;20433;-72
2023/08/09 05:53:23;;;;;;;1999.90;999.90;;;16.10;99.90;;;;;;5075934;28;20047;-71
2023/08/09 05:55:49;;;;;;;1999.90;999.90;;;16.20;99.90;;;;;;5075934;28;20033;-71
2023/08/09 05:58:17;;;;;;;1999.90;999.90;;;16.10;99.90;;;;;;5075985;28;20049;-72
2023/08/09 06:00:43;;;;;;;1999.90;999.90;;;16.20;99.90;;;;;;5073679;28;20056;-72
2023/08/09 06:03:08;;;;;;;1999.90;999.90;;;16.20;99.90;;;;;;5075961;28;20032;-71
2023/08/09 06:05:34;;;;;;;1999.90;999.90;;;16.20;99.90;;;;;;5075689;28;20036;-71
2023/08/09 06:07:59;;;;;;;1999.90;999.90;;;16.20;99.90;;;;;;5075597;28;20033;-72
2023/08/09 06:10:26;;;;;;;1999.90;999.90;;;16.20;99.90;;;;;;5075519;28;20033;-72
2023/08/09 06:12:54;;;;;;;1999.90;999.90;;;16.20;99.90;;;;;;5075464;28;20033;-72
2023/08/09 06:15:20;;;;;;;1999.90;999.90;;;16.20;99.90;;;;;;5075202;28;20112;-72
2023/08/09 06:17:46;;;;;;;1999.90;999.90;;;16.00;99.90;;;;;;5075649;28;20111;-73
2023/08/09 06:20:15;;;;;;;1999.90;999.90;;;16.00;99.90;;;;;;5075279;28;20029;-72
2023/08/09 06:22:43;;;;;;;1999.90;999.90;;;16.00;99.90;;;;;;5075439;28;20040;-72
2023/08/09 06:25:09;;;;;;;1999.90;999.90;;;16.00;99.90;;;;;;5075569;28;20025;-71
2023/08/09 06:27:35;;;;;;;1999.90;999.90;;;16.00;99.90;;;;;;5075649;28;20037;-71
2023/08/09 06:30:02;;;;;;;1999.90;999.90;;;16.00;99.90;;;;;;5073270;28;20639;-71
2023/08/09 06:32:28;;;;;;;1999.90;999.90;;;16.00;99.90;;;;;;5075561;28;20029;-78
2023/08/09 06:34:54;;;;;;;1999.90;999.90;;;16.00;99.90;;;;;;5075593;28;20032;-73
2023/08/09 06:37:20;;;;;;;1999.90;999.90;;;16.00;99.90;;;;;;5076548;28;20029;-75
2023/08/09 06:39:45;;;;;;;1999.90;999.90;;;16.00;99.90;;;;;;5075129;28;20039;-73
2023/08/09 06:42:14;;;;;;;1999.90;999.90;;;16.10;99.90;;;;;;5075131;28;20113;-74
2023/08/09 06:44:39;;;;;;;1999.90;999.90;;;16.20;99.90;;;;;;5075228;28;20557;-75
2023/08/09 06:47:06;;;;;;;1999.90;999.90;;;16.20;99.90;;;;;;5075333;28;20033;-75
2023/08/09 06:49:32;;;;;;;1999.90;999.90;;;16.30;99.90;;;;;;5075012;28;20045;-74
2023/08/09 06:52:00;;;;;;;1999.90;999.90;;;16.30;99.90;;;;;;5075304;28;20021;-74
2023/08/09 06:54:26;;;;;;;1999.90;999.90;;;16.30;99.90;;;;;;5073431;28;20108;-74
2023/08/09 06:56:51;;;;;;;1999.90;999.90;;;16.30;99.90;;;;;;5075089;28;20112;-74
2023/08/09 06:59:17;;;;;;;1999.90;999.90;;;16.30;99.90;;;;;;5074539;28;20041;-74
2023/08/09 07:01:47;;;;;;;1999.90;999.90;;;16.30;99.90;;;;;;5074811;28;20033;-76
2023/08/09 07:04:13;;;;;;;1999.90;999.90;;;16.30;99.90;;;;;;5074747;28;20033;-76
2023/08/09 07:06:39;;;;;;;1999.90;999.90;;;16.30;99.90;;;;;;5075114;28;20067;-76
2023/08/09 07:09:05;;;;;;;1999.90;999.90;;;16.30;99.90;;;;;;5073265;28;20057;-76
2023/08/09 07:11:31;;;;;;;1999.90;999.90;;;16.30;99.90;;;;;;5074272;28;20028;-76
2023/08/09 07:13:56;;;;;;;1999.90;999.90;;;16.30;99.90;;;;;;5072743;28;20037;-76
2023/08/09 07:16:22;;;;;;;1999.90;999.90;;;15.90;99.90;;;;;;5075020;28;20029;-75
2023/08/09 07:18:47;;;;;;;1999.90;999.90;;;15.80;99.90;;;;;;5073039;28;20495;-76
2023/08/09 07:21:13;;;;;;;1999.90;999.90;;;15.70;99.90;;;;;;5074660;28;20143;-76
2023/08/09 07:23:38;;;;;;;1999.90;999.90;;;15.70;99.90;;;;;;5074545;28;20037;-76
2023/08/09 07:26:04;;;;;;;1999.90;999.90;;;15.70;99.90;;;;;;5074332;28;20144;-76
2023/08/09 07:28:29;;;;;;;1999.90;999.90;;;15.80;99.90;;;;;;5074843;28;20067;-76
2023/08/09 07:30:55;;;;;;;1999.90;999.90;;;15.80;99.90;;;;;;5074723;28;20025;-77
2023/08/09 07:33:21;;;;;;;1999.90;999.90;;;15.90;99.90;;;;;;5074624;28;20111;-76
2023/08/09 07:35:48;;;;;;;1999.90;999.90;;;16.00;99.90;;;;;;5072933;28;20481;-76
2023/08/09 07:38:14;;;;;;;1999.90;999.90;;;16.00;99.90;;;;;;5074638;28;20522;-76
2023/08/09 07:40:40;;;;;;;1999.90;999.90;;;16.00;99.90;;;;;;5074300;28;20033;-77
2023/08/09 07:43:06;;;;;;;1999.90;999.90;;;16.00;99.90;;;;;;5075169;28;20037;-76
2023/08/09 07:45:32;;;;;;;1999.90;999.90;;;15.90;99.90;;;;;;5074630;28;20029;-76
2023/08/09 07:47:57;;;;;;;1999.90;999.90;;;15.90;99.90;;;;;;5072684;28;20037;-76
2023/08/09 07:50:23;;;;;;;1999.90;999.90;;;16.00;99.90;;;;;;5074225;28;20033;-76
2023/08/09 07:52:49;;;;;;;1999.90;999.90;;;16.10;99.90;;;;;;5083260;28;20036;-76
2023/08/09 07:55:14;;;;;;;1999.90;999.90;;;16.30;99.90;;;;;;5094796;28;20043;-76
2023/08/09 07:57:40;;;;;;;1999.90;999.90;;;16.40;99.90;;;;;;5094870;28;20464;-75
2023/08/09 08:00:17;;;;;;;1999.90;999.90;;;16.50;99.90;;;;;;5094403;28;20028;-75
2023/08/09 08:02:44;;;;;;;1999.90;999.90;;;16.50;99.90;;;;;;5092832;28;20032;-75
2023/08/09 08:05:12;;;;;;;1999.90;999.90;;;16.60;99.90;;;;;;5094325;28;20035;-75
2023/08/09 08:07:42;;;;;;;1999.90;999.90;;;16.60;99.90;;;;;;5094418;28;20136;-76
2023/08/09 08:10:09;;;;;;;1999.90;999.90;;;16.70;99.90;;;;;;5094306;28;20032;-76
2023/08/09 08:12:36;;;;;;;1999.90;999.90;;;16.70;99.90;;;;;;5094184;28;20025;-76
2023/08/09 08:15:03;;;;;;;1999.90;999.90;;;16.60;99.90;;;;;;5094163;28;20029;-75
2023/08/09 08:17:29;;;;;;;1999.90;999.90;;;16.50;99.90;;;;;;5094467;28;20033;-75
2023/08/09 08:19:54;;;;;;;1999.90;999.90;;;16.40;99.90;;;;;;5094327;28;20405;-75
2023/08/09 08:22:20;;;;;;;1999.90;999.90;;;16.30;99.90;;;;;;5094497;28;20033;-75
2023/08/09 08:24:45;;;;;;;1999.90;999.90;;;16.30;99.90;;;;;;5095591;28;20552;-75
2023/08/09 08:27:12;;;;;;;1999.90;999.90;;;16.30;99.90;;;;;;5097876;28;20032;-75
2023/08/09 08:29:37;;;;;;;1999.90;999.90;;;16.20;99.90;;;;;;5109787;22;20012;-76
2023/08/09 08:32:03;;;;;;;1999.90;999.90;;;16.20;99.90;;;;;;5096227;28;20049;-75
2023/08/09 08:34:31;;;;;;;1999.90;999.90;;;16.20;99.90;;;;;;5097968;28;20024;-76
2023/08/09 08:37:00;;;;;;;1999.90;999.90;;;16.20;99.90;;;;;;5096668;28;20045;-75
2023/08/09 08:39:25;;;;;;;1999.90;999.90;;;16.40;99.90;;;;;;5097347;28;20055;-76
2023/08/09 08:41:51;;;;;;;1999.90;999.90;;;16.50;99.90;;;;;;5097476;28;20469;-75
2023/08/09 08:44:17;;;;;;;1999.90;999.90;;;16.80;99.90;;;;;;5097260;28;20039;-75
2023/08/09 08:46:43;;;;;;;1999.90;999.90;;;17.10;99.90;;;;;;5097469;28;20032;-77
2023/08/09 08:49:17;;;;;;;1999.90;999.90;;;17.30;99.90;;;;;;5097433;28;20094;-77
2023/08/09 08:51:44;;;;;;;1999.90;999.90;;;17.70;99.90;;;;;;5097151;28;20104;-77
2023/08/09 08:54:12;;;;;;;1999.90;999.90;;;17.80;99.90;;;;;;5097129;28;20040;-77
2023/08/09 08:56:38;;;;;;;1999.90;999.90;;;18.00;99.90;;;;;;5095827;28;20111;-76
2023/08/09 08:59:03;;;;;;;1999.90;999.90;;;18.10;99.90;;;;;;5097507;28;20029;-77
2023/08/09 09:01:32;;;;;;;1999.90;999.90;;;18.00;99.90;;;;;;5092885;28;20482;-77
2023/08/09 09:03:57;;;;;;;1999.90;999.90;;;17.80;99.90;;;;;;5095705;28;20052;-76
2023/08/09 09:06:23;;;;;;;1999.90;999.90;;;17.70;99.90;;;;;;5096996;28;20060;-77
2023/08/09 09:08:54;;;;;;;1999.90;999.90;;;17.80;99.90;;;;;;5078093;28;20040;-75
2023/08/09 09:11:22;;;;;;;1999.90;999.90;;;18.00;99.90;;;;;;5096524;28;20044;-75
2023/08/09 09:13:50;;;;;;;1999.90;999.90;;;18.20;99.90;;;;;;5096916;28;20032;-77
2023/08/09 09:16:17;;;;;;;1999.90;999.90;;;18.20;99.90;;;;;;5095193;28;20058;-77
2023/08/09 09:18:45;;;;;;;1999.90;999.90;;;18.20;99.90;;;;;;5096757;28;20067;-77
2023/08/09 09:21:11;;;;;;;1999.90;999.90;;;18.40;99.90;;;;;;5096434;28;20028;-76
2023/08/09 09:23:38;;;;;;;1999.90;999.90;;;18.40;99.90;;;;;;5096409;28;20032;-77
2023/08/09 09:26:14;;;;;;;1999.90;999.90;;;18.20;99.90;;;;;;5096250;28;20115;-77
2023/08/09 09:28:41;;;;;;;1999.90;999.90;;;18.00;99.90;;;;;;5096274;28;20445;-76
2023/08/09 09:31:13;;;;;;;1999.90;999.90;;;18.20;99.90;;;;;;5096100;28;20041;-77
2023/08/09 09:33:39;;;;;;;1999.90;999.90;;;18.30;99.90;;;;;;5096346;28;20028;-77
2023/08/09 09:36:09;;;;;;;1999.90;999.90;;;18.50;99.90;;;;;;5095161;28;20068;-77
2023/08/09 09:38:36;;;;;;;1999.90;999.90;;;18.60;99.90;;;;;;5095863;28;20409;-77
2023/08/09 09:41:02;;;;;;;1999.90;999.90;;;18.50;99.90;;;;;;5096335;28;20036;-75
2023/08/09 09:43:32;;;;;;;1999.90;999.90;;;18.50;99.90;;;;;;5096378;28;20032;-77
2023/08/09 09:45:58;;;;;;;1999.90;999.90;;;18.90;99.90;;;;;;5094893;28;20108;-76
2023/08/09 09:48:24;;;;;;;1999.90;999.90;;;19.20;99.90;;;;;;5094695;28;20123;-77
2023/08/09 09:50:50;;;;;;;1999.90;999.90;;;19.10;99.90;;;;;;5094842;28;20032;-77
2023/08/09 09:53:20;;;;;;;1999.90;999.90;;;19.20;99.90;;;;;;5096348;28;20040;-76
2023/08/09 09:55:46;;;;;;;1999.90;999.90;;;19.30;99.90;;;;;;5096041;28;20509;-75
2023/08/09 09:58:12;;;;;;;1999.90;999.90;;;19.30;99.90;;;;;;5094543;28;20056;-76
2023/08/09 10:00:43;;;;;;;1999.90;999.90;;;19.30;99.90;;;;;;5094744;28;20024;-76
2023/08/09 10:03:10;;;;;;;1999.90;999.90;;;19.40;99.90;;;;;;5096730;28;20063;-77
2023/08/09 10:05:37;;;;;;;1999.90;999.90;;;19.50;99.90;;;;;;5095711;28;20029;-76
2023/08/09 10:08:11;;;;;;;1999.90;999.90;;;20.00;99.90;;;;;;5094566;28;20127;-76
2023/08/09 10:10:38;;;;;;;1999.90;999.90;;;20.20;99.90;;;;;;5096019;28;20085;-73
2023/08/09 10:13:05;;;;;;;1999.90;999.90;;;20.20;99.90;;;;;;5096185;28;20506;-76
2023/08/09 10:15:41;;;;;;;1999.90;999.90;;;19.80;99.90;;;;;;5095862;28;20029;-74
2023/08/09 10:18:29;;;;;;;1999.90;999.90;;;19.80;99.90;;;;;;5096199;28;20036;-76
2023/08/09 10:20:57;;;;;;;1999.90;999.90;;;19.90;99.90;;;;;;5095754;28;20025;-74
2023/08/09 10:23:25;;;;;;;1999.90;999.90;;;20.00;99.90;;;;;;5094618;28;20508;-74
2023/08/09 10:25:51;;;;;;;1999.90;999.90;;;20.00;99.90;;;;;;5095244;28;20036;-75
2023/08/09 10:28:19;;;;;;;1999.90;999.90;;;20.10;99.90;;;;;;5094325;28;20037;-75
2023/08/09 10:30:54;;;;;;;1999.90;999.90;;;20.10;99.90;;;;;;5095122;28;20075;-74
2023/08/09 10:33:20;;;;;;;1999.90;999.90;;;20.30;99.90;;;;;;5095710;28;20509;-77
2023/08/09 10:35:52;;;;;;;1999.90;999.90;;;20.60;99.90;;;;;;5094445;28;20033;-78
2023/08/09 10:38:19;;;;;;;1999.90;999.90;;;21.20;99.90;;;;;;5094341;28;20353;-74
2023/08/09 10:40:51;;;;;;;1999.90;999.90;;;21.40;99.90;;;;;;5095058;28;20127;-74
2023/08/09 10:43:18;;;;;;;1999.90;999.90;;;21.40;99.90;;;;;;5095754;28;20032;-73
2023/08/09 10:45:45;;;;;;;1999.90;999.90;;;21.30;99.90;;;;;;5093382;28;20039;-78
2023/08/09 10:48:26;;;;;;;1999.90;999.90;;;21.50;99.90;;;;;;5096410;28;20032;-73
2023/08/09 10:51:07;;;;;;;1999.90;999.90;;;21.80;99.90;;;;;;5093199;28;20035;-75
2023/08/09 10:53:55;;;;;;;1999.90;999.90;;;22.10;99.90;;;;;;5093303;28;20043;-75
2023/08/09 10:56:44;;;;;;;1999.90;999.90;;;22.40;99.90;;;;;;5093702;28;20044;-75
2023/08/09 10:59:31;;;;;;;1999.90;999.90;;;22.50;99.90;;;;;;5097126;28;20111;-75
2023/08/09 11:01:58;;;;;;;1999.90;999.90;;;22.30;99.90;;;;;;5091319;28;20080;-76
2023/08/09 11:04:23;;;;;;;1999.90;999.90;;;22.50;99.90;;;;;;5095779;28;20032;-80
2023/08/09 11:06:49;;;;;;;1999.90;999.90;;;22.80;99.90;;;;;;5107330;27;20029;-76
2023/08/09 11:09:18;;;;;;;1999.90;999.90;;;22.90;99.90;;;;;;5097196;28;20040;-74
2023/08/09 11:11:46;;;;;;;1999.90;999.90;;;22.40;99.90;;;;;;5110574;28;20170;-79
2023/08/09 11:14:13;;;;;;;1999.90;999.90;;;21.90;99.90;;;;;;5093465;28;20036;-75
2023/08/09 11:16:39;;;;;;;1999.90;999.90;;;21.30;99.90;;;;;;5090812;28;20033;-77
2023/08/09 11:19:10;;;;;;;1999.90;999.90;;;21.20;99.90;;;;;;5097618;28;20316;-79
2023/08/09 11:21:43;;;;;;;1999.90;999.90;;;21.30;99.90;;;;;;5118315;28;20028;-75
2023/08/09 11:24:10;;;;;;;1999.90;999.90;;;21.10;99.90;;;;;;5105154;27;20052;-76
2023/08/09 11:26:39;;;;;;;1999.90;999.90;;;21.40;99.90;;;;;;5099475;28;20044;-77
2023/08/09 11:29:06;;;;;;;1999.90;999.90;;;21.90;99.90;;;;;;5099837;28;20033;-78
2023/08/09 11:31:40;;;;;;;1999.90;999.90;;;22.00;99.90;;;;;;5096945;28;20059;-72
2023/08/09 11:34:06;;;;;;;1999.90;999.90;;;22.40;99.90;;;;;;5115752;27;20067;-73
2023/08/09 11:36:32;;;;;;;1999.90;999.90;;;22.50;99.90;;;;;;5114868;27;20111;-74
2023/08/09 11:38:59;;;;;;;1999.90;999.90;;;21.90;99.90;;;;;;5098447;27;20472;-74
2023/08/09 11:41:26;;;;;;;1999.90;999.90;;;21.70;99.90;;;;;;5090911;28;20032;-74
2023/08/09 11:43:54;;;;;;;1999.90;999.90;;;21.70;99.90;;;;;;5080229;28;20028;-74
2023/08/09 11:46:23;;;;;;;1999.90;999.90;;;22.10;99.90;;;;;;5092538;28;20507;-74
2023/08/09 11:48:50;;;;;;;1999.90;999.90;;;22.10;99.90;;;;;;5085550;28;20045;-74
2023/08/09 11:51:20;;;;;;;1999.90;999.90;;;22.40;99.90;;;;;;5092905;28;20028;-74
2023/08/09 11:53:48;;;;;;;1999.90;999.90;;;22.90;99.90;;;;;;5092673;28;20028;-75
2023/08/09 11:56:18;;;;;;;1999.90;999.90;;;23.10;99.90;;;;;;5093287;28;20067;-74
2023/08/09 11:58:46;;;;;;;1999.90;999.90;;;23.40;99.90;;;;;;5092211;28;20037;-74